Time;durP1;ratioP1;P1;durP2;ratioP2;P2;SDS_P1;SDS_P2;PMS_P1;PMS_P2;Temp;Humidity;BMP_temperature;BMP_pressure;BME280_temperature;BME280_humidity;BME280_pressure;Samples;Min_cycle;Max_cycle;Signal;HPM_P1;HPM_P2
2021/01/19 00:00:01;;;;;;;52.10;23.25;;;;;;;-2.06;80.79;100888.66;5012918;28;20037;-76
2021/01/19 00:02:26;;;;;;;51.70;24.20;;;;;;;-1.94;80.99;100885.19;4995417;28;20372;-75
2021/01/19 00:04:52;;;;;;;57.17;25.13;;;;;;;-2.39;80.92;100830.25;5012870;28;20070;-74
2021/01/19 00:07:17;;;;;;;57.55;25.50;;;;;;;-2.03;80.73;100873.88;5012342;28;20042;-75
2021/01/19 00:09:43;;;;;;;56.50;25.10;;;;;;;-2.20;80.82;100845.97;5012720;28;20462;-73
2021/01/19 00:12:08;;;;;;;52.97;26.55;;;;;;;-2.20;81.06;100838.13;5012327;28;20073;-75
2021/01/19 00:14:34;;;;;;;52.20;25.13;;;;;;;-2.06;81.04;100862.50;5012711;28;20116;-74
2021/01/19 00:16:59;;;;;;;51.78;24.42;;;;;;;-2.09;80.82;100872.97;5012532;28;20034;-81
2021/01/19 00:19:25;;;;;;;56.17;25.33;;;;;;;-2.00;81.14;100885.19;4995173;28;20434;-74
2021/01/19 00:21:50;;;;;;;57.72;26.23;;;;;;;-2.16;81.34;100873.84;5013916;28;20034;-74
2021/01/19 00:24:16;;;;;;;56.80;26.67;;;;;;;-2.08;81.41;100878.19;5015795;28;20398;-74
2021/01/19 00:26:41;;;;;;;54.08;25.13;;;;;;;-2.40;81.29;100804.13;5016221;28;20088;-75
2021/01/19 00:29:07;;;;;;;53.03;24.98;;;;;;;-2.00;81.03;100883.44;4997987;28;20379;-75
2021/01/19 00:31:32;;;;;;;53.20;24.92;;;;;;;-2.02;81.04;100878.22;5016072;28;20116;-73
2021/01/19 00:33:58;;;;;;;50.80;23.48;;;;;;;-2.30;81.24;100832.00;4998527;28;20045;-75
2021/01/19 00:36:23;;;;;;;50.40;24.55;;;;;;;-1.98;81.08;100871.25;4998049;28;20058;-77
2021/01/19 00:38:49;;;;;;;53.10;25.17;;;;;;;-2.17;81.27;100836.38;5015826;28;20042;-72
2021/01/19 00:41:14;;;;;;;52.45;24.08;;;;;;;-1.96;80.94;100861.66;5015487;28;20034;-72
2021/01/19 00:43:40;;;;;;;53.80;24.30;;;;;;;-2.02;81.25;100867.75;4982240;28;20390;-72
2021/01/19 00:46:05;;;;;;;51.78;23.40;;;;;;;-1.97;81.11;100865.13;4997874;28;20037;-72
2021/01/19 00:48:31;;;;;;;48.28;21.75;;;;;;;-2.05;81.11;100866.88;4998384;28;20030;-74
2021/01/19 00:50:57;;;;;;;51.10;23.40;;;;;;;-2.11;81.32;100867.75;4998135;28;20132;-74
2021/01/19 00:53:23;;;;;;;50.92;23.98;;;;;;;-2.05;81.45;100866.88;5015325;28;20487;-74
2021/01/19 00:55:48;;;;;;;52.70;23.75;;;;;;;-2.24;81.29;100820.69;5015535;28;20040;-73
2021/01/19 00:58:14;;;;;;;51.60;23.88;;;;;;;-2.06;81.18;100852.94;4997824;28;20034;-74
2021/01/19 01:00:40;;;;;;;50.53;23.35;;;;;;;-2.03;81.71;100867.72;5015729;28;20352;-74
2021/01/19 01:03:06;;;;;;;48.78;23.38;;;;;;;-2.13;81.91;100855.53;5015103;28;20428;-74
2021/01/19 01:05:31;;;;;;;51.72;24.15;;;;;;;-2.18;82.12;100852.94;4981768;28;20034;-75
2021/01/19 01:07:59;;;;;;;51.03;23.05;;;;;;;-2.05;82.32;100859.91;5015256;28;20030;-75
2021/01/19 01:10:25;;;;;;;55.28;24.65;;;;;;;-1.97;82.09;100864.28;5015155;28;20065;-74
2021/01/19 01:12:50;;;;;;;55.10;24.67;;;;;;;-2.27;82.57;100833.75;4981669;28;20071;-74
2021/01/19 01:15:27;;;;;;;54.38;24.92;;;;;;;-1.98;82.85;100871.25;4997760;28;20116;-75
2021/01/19 01:17:54;;;;;;;56.03;24.83;;;;;;;-1.96;82.82;100866.88;5015402;28;20052;-72
2021/01/19 01:20:19;;;;;;;57.47;26.55;;;;;;;-2.04;82.61;100852.94;5014781;28;20391;-73
2021/01/19 01:22:45;;;;;;;56.75;26.25;;;;;;;-1.93;83.10;100861.66;4997667;28;20034;-73
2021/01/19 01:25:15;;;;;;;60.60;26.95;;;;;;;-1.96;83.47;100869.50;5014968;28;20112;-73
2021/01/19 01:27:42;;;;;;;59.00;26.63;;;;;;;-1.92;83.40;100860.78;5015084;28;20026;-73
2021/01/19 01:30:09;;;;;;;60.30;27.20;;;;;;;-1.92;83.46;100852.94;5014619;28;20529;-73
2021/01/19 01:32:43;;;;;;;59.22;27.10;;;;;;;-2.16;83.83;100801.53;5014541;28;20460;-74
2021/01/19 01:35:09;;;;;;;57.95;26.05;;;;;;;-1.85;83.55;100853.81;5013622;28;20112;-73
2021/01/19 01:37:35;;;;;;;60.05;27.17;;;;;;;-1.90;83.88;100848.59;5014708;28;20049;-73
2021/01/19 01:40:01;;;;;;;59.30;27.42;;;;;;;-1.99;84.18;100832.03;5014945;28;20379;-74
2021/01/19 01:42:27;;;;;;;66.60;28.60;;;;;;;-1.92;84.27;100847.72;4997170;28;20057;-75
2021/01/19 01:44:52;;;;;;;61.83;27.33;;;;;;;-2.22;84.05;100804.16;4997296;28;20112;-76
2021/01/19 01:47:27;;;;;;;57.80;27.50;;;;;;;-1.91;84.39;100833.78;5014356;28;20033;-72
2021/01/19 01:49:53;;;;;;;60.53;27.77;;;;;;;-1.87;84.64;100850.31;5014645;28;20029;-71
2021/01/19 01:52:21;;;;;;;60.90;27.42;;;;;;;-1.92;84.81;100837.25;4996882;28;20036;-71
2021/01/19 01:54:50;;;;;;;64.53;28.55;;;;;;;-1.96;84.66;100832.88;5014465;28;20072;-71
2021/01/19 01:57:17;;;;;;;61.67;27.80;;;;;;;-2.01;84.94;100845.09;5014190;28;20048;-75
2021/01/19 01:59:58;;;;;;;64.20;28.75;;;;;;;-2.11;85.33;100843.34;5014364;28;20088;-74
2021/01/19 02:02:23;;;;;;;60.72;27.90;;;;;;;-2.27;85.90;100823.28;4996678;28;20034;-73
2021/01/19 02:04:49;;;;;;;59.78;26.60;;;;;;;-2.25;85.61;100821.53;5014408;28;20100;-73
2021/01/19 02:07:21;;;;;;;61.03;27.20;;;;;;;-2.26;86.17;100827.66;5014057;28;20437;-75
2021/01/19 02:09:56;;;;;;;61.30;27.88;;;;;;;-2.59;86.60;100787.56;5014165;28;20427;-74
2021/01/19 02:12:32;;;;;;;63.40;28.90;;;;;;;-2.40;86.78;100811.97;5014188;28;20034;-74
2021/01/19 02:15:05;;;;;;;62.05;27.85;;;;;;;-2.42;86.62;100832.84;5013954;28;20034;-74
2021/01/19 02:17:57;;;;;;;63.75;29.15;;;;;;;-2.44;87.38;100825.88;5014368;28;20038;-75
2021/01/19 02:20:34;;;;;;;59.90;27.33;;;;;;;-2.47;87.65;100824.13;5003124;28;20454;-74
2021/01/19 02:23:15;;;;;;;65.50;30.17;;;;;;;-2.45;87.79;100825.00;4996339;28;20040;-74
2021/01/19 02:26:00;;;;;;;64.00;29.65;;;;;;;-2.34;87.33;100823.28;5013779;28;20476;-74
2021/01/19 02:28:34;;;;;;;60.75;27.30;;;;;;;-2.32;87.08;100816.34;5013606;28;20052;-73
2021/01/19 02:31:21;;;;;;;68.03;29.75;;;;;;;-2.29;87.07;100819.81;5013790;28;20029;-73
2021/01/19 02:34:06;;;;;;;64.50;28.80;;;;;;;-2.26;87.02;100817.19;5013949;28;20117;-73
2021/01/19 02:36:43;;;;;;;66.63;30.77;;;;;;;-2.20;87.15;100810.25;5013853;28;20057;-72
2021/01/19 02:39:12;;;;;;;68.72;30.58;;;;;;;-2.63;87.13;100746.59;5013946;28;20061;-79
2021/01/19 02:41:41;;;;;;;68.30;30.98;;;;;;;-2.23;87.21;100811.97;5013643;28;20493;-73
2021/01/19 02:44:20;;;;;;;65.15;29.30;;;;;;;-2.33;87.41;100791.03;5013293;28;20034;-72
2021/01/19 02:46:55;;;;;;;63.15;29.73;;;;;;;-2.18;87.17;100803.28;5013789;28;20065;-73
2021/01/19 02:49:21;;;;;;;67.90;29.48;;;;;;;-2.07;86.71;100805.88;4995769;28;20029;-72
2021/01/19 02:51:50;;;;;;;62.55;30.15;;;;;;;-2.07;87.04;100811.09;5013699;28;20440;-73
2021/01/19 02:54:16;;;;;;;65.43;30.45;;;;;;;-2.27;87.13;100776.25;5012969;28;20459;-72
2021/01/19 02:57:04;;;;;;;67.15;30.27;;;;;;;-2.04;86.85;100801.50;5013395;28;20490;-72
2021/01/19 02:59:40;;;;;;;68.15;30.50;;;;;;;-2.08;87.00;100791.06;5013223;28;20038;-72
2021/01/19 03:02:19;;;;;;;63.92;30.77;;;;;;;-1.99;86.73;100809.38;5013407;28;20399;-71
2021/01/19 03:04:47;;;;;;;66.88;29.92;;;;;;;-1.95;86.79;100808.47;5013367;28;20391;-71
2021/01/19 03:07:13;;;;;;;64.15;30.25;;;;;;;-1.85;86.52;100807.59;4995952;28;20387;-72
2021/01/19 03:09:40;;;;;;;66.57;29.75;;;;;;;-1.84;86.63;100806.72;4995924;28;20073;-72
2021/01/19 03:12:07;;;;;;;67.85;28.40;;;;;;;-2.12;86.34;100755.34;5013315;28;20083;-71
2021/01/19 03:14:37;;;;;;;64.60;28.55;;;;;;;-1.84;86.32;100798.88;5012912;28;20041;-72
2021/01/19 03:17:07;;;;;;;66.10;29.83;;;;;;;-1.83;86.62;100792.81;5010206;28;20038;-71
2021/01/19 03:19:41;;;;;;;64.30;29.98;;;;;;;-1.95;86.40;100763.16;5012753;28;20026;-73
2021/01/19 03:22:07;;;;;;;67.63;28.40;;;;;;;-1.73;85.59;100791.91;5013430;28;20034;-74
2021/01/19 03:24:33;;;;;;;63.47;30.38;;;;;;;-1.68;85.50;100793.66;4995304;28;20439;-75
2021/01/19 03:26:58;;;;;;;65.93;28.33;;;;;;;-1.99;85.70;100730.94;4995772;28;20120;-73
2021/01/19 03:29:24;;;;;;;62.53;29.88;;;;;;;-1.70;85.53;100780.56;5012822;28;20038;-73
2021/01/19 03:31:49;;;;;;;69.65;30.13;;;;;;;-1.85;85.80;100750.06;4995525;28;20127;-73
2021/01/19 03:34:15;;;;;;;67.18;31.10;;;;;;;-1.70;86.22;100784.94;5012292;28;20049;-76
2021/01/19 03:36:41;;;;;;;69.32;31.13;;;;;;;-1.97;86.31;100744.88;5013112;28;20049;-77
2021/01/19 03:39:07;;;;;;;66.60;30.20;;;;;;;-1.73;86.27;100786.69;4995545;28;20124;-76
2021/01/19 03:41:33;;;;;;;62.13;30.45;;;;;;;-1.76;86.28;100775.34;5012982;28;20188;-75
2021/01/19 03:43:58;;;;;;;65.60;29.63;;;;;;;-1.88;85.90;100747.47;4979125;28;20391;-74
2021/01/19 03:46:25;;;;;;;65.32;30.88;;;;;;;-2.05;86.08;100721.34;4994802;28;20041;-74
2021/01/19 03:48:51;;;;;;;66.65;30.83;;;;;;;-1.69;86.49;100773.59;5012883;28;20053;-74
2021/01/19 03:51:16;;;;;;;61.20;30.75;;;;;;;-1.71;86.78;100772.72;4962976;28;20046;-74
2021/01/19 03:53:42;;;;;;;61.25;30.55;;;;;;;-1.83;86.63;100729.19;5013132;28;20062;-74
2021/01/19 03:56:07;;;;;;;62.70;28.20;;;;;;;-1.49;86.11;100771.78;5012839;28;20143;-74
2021/01/19 03:58:33;;;;;;;70.43;32.22;;;;;;;-1.66;87.03;100765.72;5016101;28;20030;-74
2021/01/19 04:00:59;;;;;;;67.53;30.83;;;;;;;-1.69;87.05;100750.06;5016508;28;20061;-74
2021/01/19 04:03:24;;;;;;;72.30;32.15;;;;;;;-1.70;87.32;100750.94;4998716;28;20042;-74
2021/01/19 04:05:50;;;;;;;67.13;31.73;;;;;;;-1.59;87.19;100767.47;4982965;28;20379;-75
2021/01/19 04:08:15;;;;;;;64.72;29.55;;;;;;;-1.80;87.17;100722.19;4998787;28;20081;-79
2021/01/19 04:10:41;;;;;;;66.65;30.45;;;;;;;-1.50;87.20;100764.81;5016707;28;20033;-75
2021/01/19 04:13:06;;;;;;;65.35;30.33;;;;;;;-1.52;86.93;100766.59;4998886;28;20470;-77
2021/01/19 04:15:32;;;;;;;68.90;31.67;;;;;;;-1.51;87.18;100766.56;4998342;28;20129;-77
2021/01/19 04:17:57;;;;;;;66.43;30.48;;;;;;;-1.71;87.29;100739.59;4998907;28;20474;-76
2021/01/19 04:20:23;;;;;;;70.10;32.00;;;;;;;-1.62;87.61;100743.94;5015954;28;20088;-72
2021/01/19 04:22:48;;;;;;;63.92;31.33;;;;;;;-1.49;87.98;100762.19;4998873;28;20041;-72
2021/01/19 04:25:14;;;;;;;62.97;28.95;;;;;;;-1.70;87.56;100719.53;4998772;28;20478;-73
2021/01/19 04:27:39;;;;;;;62.67;29.92;;;;;;;-1.61;87.79;100706.44;5015758;28;20030;-74
2021/01/19 04:30:08;;;;;;;61.17;29.10;;;;;;;-1.59;88.32;100720.38;4998458;28;20133;-72
2021/01/19 04:32:36;;;;;;;62.70;28.85;;;;;;;-1.26;88.31;100767.34;4999072;28;20041;-72
2021/01/19 04:35:02;;;;;;;63.63;28.60;;;;;;;-1.39;88.42;100744.72;5015998;28;20060;-72
2021/01/19 04:37:28;;;;;;;61.65;28.40;;;;;;;-1.19;88.45;100755.97;5015871;28;20032;-73
2021/01/19 04:39:53;;;;;;;59.78;27.48;;;;;;;-1.30;87.81;100746.44;4998669;28;20399;-73
2021/01/19 04:42:19;;;;;;;62.55;29.35;;;;;;;-1.55;87.81;100717.72;5015725;28;20034;-74
2021/01/19 04:44:48;;;;;;;60.05;29.45;;;;;;;-1.25;88.69;100768.25;5015702;28;20439;-74
2021/01/19 04:47:15;;;;;;;64.32;29.70;;;;;;;-1.40;88.69;100748.22;5015931;28;20041;-74
2021/01/19 04:49:41;;;;;;;62.50;29.90;;;;;;;-1.45;89.50;100748.25;5015554;28;20028;-74
2021/01/19 04:52:17;;;;;;;57.33;27.77;;;;;;;-1.33;89.19;100765.66;5015800;28;20034;-74
2021/01/19 04:55:02;;;;;;;61.65;28.80;;;;;;;-1.45;89.51;100745.63;5015957;28;20022;-73
2021/01/19 04:57:30;;;;;;;62.83;29.10;;;;;;;-1.43;89.54;100750.00;4981945;28;20049;-73
2021/01/19 05:00:06;;;;;;;58.55;29.20;;;;;;;-1.25;89.74;100768.25;5015376;28;20052;-74
2021/01/19 05:02:41;;;;;;;54.33;26.65;;;;;;;-1.21;89.65;100770.81;5015237;28;20096;-74
2021/01/19 05:05:32;;;;;;;62.58;27.75;;;;;;;-1.23;89.50;100769.97;5015585;28;20030;-74
2021/01/19 05:08:19;;;;;;;58.15;27.15;;;;;;;-1.28;89.69;100774.34;4997680;28;20048;-74
2021/01/19 05:10:56;;;;;;;54.75;26.05;;;;;;;-1.24;89.93;100770.84;5015008;28;20054;-74
2021/01/19 05:13:57;;;;;;;58.35;28.13;;;;;;;-1.37;90.38;100753.44;5015019;28;20026;-74
2021/01/19 05:16:35;;;;;;;55.72;26.83;;;;;;;-1.30;90.47;100770.00;5015202;28;20045;-76
2021/01/19 05:19:03;;;;;;;59.83;28.13;;;;;;;-1.31;90.41;100776.09;4997905;28;20413;-74
2021/01/19 05:21:28;;;;;;;65.22;28.92;;;;;;;-1.35;90.94;100771.75;4997318;28;20383;-74
2021/01/19 05:23:56;;;;;;;62.72;29.02;;;;;;;-1.34;90.68;100770.91;5015034;28;20153;-75
2021/01/19 05:26:22;;;;;;;65.68;29.00;;;;;;;-1.32;90.60;100775.25;4997371;28;20042;-82
2021/01/19 05:28:53;;;;;;;61.35;29.60;;;;;;;-1.39;90.87;100755.19;5014848;28;20390;-74
2021/01/19 05:31:20;;;;;;;60.95;28.15;;;;;;;-1.31;90.70;100770.88;4997502;28;20053;-74
2021/01/19 05:33:54;;;;;;;64.75;29.30;;;;;;;-1.24;90.90;100778.69;5014537;28;20037;-73
2021/01/19 05:36:22;;;;;;;60.85;28.38;;;;;;;-1.23;90.74;100767.34;5014658;28;20415;-73
2021/01/19 05:38:52;;;;;;;60.90;27.98;;;;;;;-1.29;91.66;100777.84;5014469;28;20037;-72
2021/01/19 05:41:46;;;;;;;60.53;28.45;;;;;;;-1.22;91.75;100781.31;5014682;28;20026;-71
2021/01/19 05:44:26;;;;;;;61.55;27.65;;;;;;;-1.29;91.36;100776.97;5012341;28;20081;-70
2021/01/19 05:47:04;;;;;;;59.30;27.13;;;;;;;-1.30;91.74;100776.09;5014676;28;20488;-70
2021/01/19 05:49:42;;;;;;;58.63;28.02;;;;;;;-1.26;91.59;100782.19;5014190;28;20101;-69
2021/01/19 05:52:15;;;;;;;64.15;29.40;;;;;;;-1.29;92.06;100779.59;5014594;28;20037;-74
2021/01/19 05:54:42;;;;;;;58.38;27.27;;;;;;;-1.41;91.85;100766.53;5014270;28;20034;-73
2021/01/19 05:57:10;;;;;;;62.42;28.45;;;;;;;-1.32;91.88;100780.47;4997229;28;20487;-74
2021/01/19 05:59:37;;;;;;;73.18;30.70;;;;;;;-1.38;92.01;100777.88;5019992;28;20123;-75
2021/01/19 06:02:05;;;;;;;65.75;29.23;;;;;;;-1.36;91.92;100777.84;4997961;28;20073;-75
2021/01/19 06:04:33;;;;;;;65.68;29.25;;;;;;;-1.34;91.38;100779.63;5014188;28;20105;-75
2021/01/19 06:06:59;;;;;;;68.55;29.83;;;;;;;-1.39;91.89;100776.13;5014303;28;20037;-75
2021/01/19 06:09:25;;;;;;;70.63;31.20;;;;;;;-1.44;91.90;100777.91;5013897;28;20124;-78
2021/01/19 06:11:56;;;;;;;67.53;30.60;;;;;;;-1.63;91.89;100744.81;5013999;28;20034;-73
2021/01/19 06:14:26;;;;;;;67.30;30.52;;;;;;;-1.39;91.81;100781.34;4996332;28;20033;-72
2021/01/19 06:17:16;;;;;;;63.03;29.67;;;;;;;-1.41;91.91;100783.13;5014132;28;20033;-72
2021/01/19 06:19:43;;;;;;;67.35;31.20;;;;;;;-1.43;91.85;100766.56;4997203;28;20029;-72
2021/01/19 06:22:13;;;;;;;63.67;30.13;;;;;;;-1.41;92.03;100775.28;5013710;28;20042;-71
2021/01/19 06:24:44;;;;;;;62.05;29.80;;;;;;;-1.66;91.77;100742.19;4996007;28;20548;-72
2021/01/19 06:27:20;;;;;;;67.20;31.77;;;;;;;-1.45;92.01;100776.13;5013591;28;20108;-70
2021/01/19 06:29:46;;;;;;;68.13;31.00;;;;;;;-1.60;92.10;100778.81;5013654;28;20708;-71
2021/01/19 06:32:15;;;;;;;68.90;31.35;;;;;;;-1.46;91.92;100777.00;4996511;28;20034;-70
2021/01/19 06:34:41;;;;;;;64.28;30.70;;;;;;;-1.49;91.76;100785.75;5013550;28;20046;-69
2021/01/19 06:37:08;;;;;;;67.80;30.48;;;;;;;-1.51;92.16;100787.50;5013723;28;20497;-69
2021/01/19 06:39:37;;;;;;;66.80;31.73;;;;;;;-1.82;92.09;100754.44;4996434;28;20372;-72
2021/01/19 06:42:08;;;;;;;66.95;31.23;;;;;;;-1.83;92.39;100743.13;5013937;28;20044;-71
2021/01/19 06:44:38;;;;;;;65.70;31.63;;;;;;;-1.60;92.50;100798.00;5013605;28;20080;-71
2021/01/19 06:47:06;;;;;;;69.50;31.98;;;;;;;-1.75;92.76;100750.94;5013821;28;20026;-73
2021/01/19 06:49:33;;;;;;;69.25;31.30;;;;;;;-1.49;92.76;100785.75;5013460;28;20546;-69
2021/01/19 06:52:12;;;;;;;64.38;29.73;;;;;;;-1.48;92.23;100776.16;5013614;28;20062;-72
2021/01/19 06:54:52;;;;;;;62.67;29.33;;;;;;;-1.59;92.17;100752.63;5013562;28;20443;-72
2021/01/19 06:57:52;;;;;;;61.60;28.85;;;;;;;-1.22;92.05;100790.03;5013580;28;20109;-72
2021/01/19 07:00:20;;;;;;;57.90;27.02;;;;;;;-1.40;91.58;100742.13;4972286;28;20180;-72
2021/01/19 07:02:53;;;;;;;54.58;25.15;;;;;;;-1.16;91.86;100768.19;5013408;28;20129;-72
2021/01/19 07:05:23;;;;;;;62.07;27.10;;;;;;;-0.97;91.30;100777.69;5013529;28;20096;-72
2021/01/19 07:07:54;;;;;;;49.25;24.77;;;;;;;-0.75;90.90;100788.94;5013090;28;20030;-72
2021/01/19 07:10:39;;;;;;;54.15;24.52;;;;;;;-0.73;90.71;100788.94;5013320;28;20130;-71
2021/01/19 07:13:07;;;;;;;59.40;26.42;;;;;;;-0.72;90.80;100788.91;5013631;28;20042;-72
2021/01/19 07:16:02;;;;;;;52.58;25.27;;;;;;;-0.59;90.48;100789.72;5013066;28;20472;-71
2021/01/19 07:18:42;;;;;;;46.28;23.10;;;;;;;-0.41;90.21;100791.34;5013420;28;20018;-69
2021/01/19 07:21:10;;;;;;;39.63;19.73;;;;;;;-0.24;90.30;100789.47;4997257;28;20044;-71
2021/01/19 07:23:45;;;;;;;30.98;15.10;;;;;;;-0.04;89.33;100786.69;5013165;28;20041;-72
2021/01/19 07:26:19;;;;;;;28.48;13.95;;;;;;;0.19;88.86;100786.47;5013310;28;20434;-71
2021/01/19 07:28:46;;;;;;;27.65;14.02;;;;;;;0.31;88.59;100783.75;5012991;28;20025;-71
2021/01/19 07:31:14;;;;;;;27.13;12.98;;;;;;;0.25;87.88;100765.44;5014766;28;20030;-70
2021/01/19 07:33:42;;;;;;;20.60;9.65;;;;;;;0.44;87.83;100774.88;5017288;28;20066;-71
2021/01/19 07:36:22;;;;;;;19.52;9.82;;;;;;;0.51;87.45;100771.31;5016964;28;20050;-76
2021/01/19 07:38:48;;;;;;;19.50;8.48;;;;;;;0.60;87.03;100779.97;4999530;28;20033;-74
2021/01/19 07:41:43;;;;;;;19.83;9.65;;;;;;;0.56;87.13;100772.09;5017047;28;20030;-71
2021/01/19 07:44:22;;;;;;;17.92;9.35;;;;;;;0.65;87.24;100783.38;4999951;28;20041;-72
2021/01/19 07:46:48;;;;;;;21.65;10.57;;;;;;;0.68;87.31;100773.75;5016887;28;20116;-71
2021/01/19 07:49:13;;;;;;;22.10;10.93;;;;;;;0.61;87.14;100750.19;5016900;28;20030;-71
2021/01/19 07:51:44;;;;;;;22.17;10.25;;;;;;;0.68;87.14;100757.13;4999118;28;20030;-72
2021/01/19 07:54:31;;;;;;;21.23;10.93;;;;;;;0.81;87.08;100775.31;5016844;28;20121;-72
2021/01/19 07:57:29;;;;;;;21.20;9.30;;;;;;;0.64;87.36;100750.16;5016748;28;20044;-72
2021/01/19 07:59:57;;;;;;;20.35;10.13;;;;;;;0.79;87.28;100774.50;5016762;28;20045;-71
2021/01/19 08:02:23;;;;;;;18.85;9.15;;;;;;;0.86;87.14;100772.63;4999332;28;20030;-70
2021/01/19 08:05:05;;;;;;;21.23;9.93;;;;;;;0.79;87.30;100755.22;4998768;28;20030;-70
2021/01/19 08:07:44;;;;;;;17.75;8.73;;;;;;;0.83;87.29;100767.44;5016592;28;20068;-70
2021/01/19 08:10:23;;;;;;;16.80;7.55;;;;;;;0.74;87.06;100746.53;5016590;28;20030;-71
2021/01/19 08:12:50;;;;;;;16.63;8.48;;;;;;;0.88;87.31;100776.13;5016324;28;20048;-71
2021/01/19 08:15:32;;;;;;;17.25;8.82;;;;;;;0.81;87.16;100758.69;5016530;28;20092;-71
2021/01/19 08:18:00;;;;;;;17.27;8.27;;;;;;;0.97;87.11;100773.41;5016454;28;20030;-71
2021/01/19 08:20:34;;;;;;;18.85;8.73;;;;;;;1.00;86.90;100775.97;5016571;28;20391;-70
2021/01/19 08:23:14;;;;;;;16.55;7.70;;;;;;;0.77;86.93;100730.72;5016123;28;20058;-71
2021/01/19 08:25:41;;;;;;;20.48;8.38;;;;;;;0.98;87.12;100756.75;5015932;28;20033;-70
2021/01/19 08:28:08;;;;;;;14.18;6.80;;;;;;;1.10;86.57;100772.34;5016465;28;20125;-72
2021/01/19 08:30:34;;;;;;;15.00;7.57;;;;;;;1.15;86.37;100775.75;5016757;28;20068;-70
2021/01/19 08:33:00;;;;;;;16.63;6.97;;;;;;;0.96;86.19;100747.97;5016042;28;20164;-71
2021/01/19 08:35:29;;;;;;;15.45;6.80;;;;;;;1.20;86.23;100780.09;5013899;28;20074;-70
2021/01/19 08:38:01;;;;;;;14.40;6.75;;;;;;;1.30;85.83;100777.31;5016221;28;20053;-71
2021/01/19 08:40:32;;;;;;;13.88;6.63;;;;;;;1.27;85.75;100792.28;5016014;28;20092;-70
2021/01/19 08:42:58;;;;;;;11.60;5.78;;;;;;;1.33;84.93;100784.28;5015015;28;20034;-71
2021/01/19 08:45:38;;;;;;;12.13;6.50;;;;;;;1.42;84.74;100782.38;4982447;28;20033;-70
2021/01/19 08:48:05;;;;;;;10.52;5.40;;;;;;;1.44;84.72;100780.59;5015832;28;20466;-71
2021/01/19 08:50:35;;;;;;;11.32;6.07;;;;;;;1.47;84.10;100779.72;4998349;28;20066;-71
2021/01/19 08:53:12;;;;;;;5.15;2.67;;;;;;;1.37;83.75;100764.97;5015974;28;20462;-71
2021/01/19 08:55:38;;;;;;;13.35;6.50;;;;;;;1.56;83.94;100786.59;5015802;28;20092;-71
2021/01/19 08:58:06;;;;;;;8.43;4.10;;;;;;;1.59;83.67;100784.78;5015351;28;20026;-70
2021/01/19 09:00:36;;;;;;;9.90;4.82;;;;;;;1.36;83.28;100731.69;5015695;28;20021;-70
2021/01/19 09:03:13;;;;;;;11.52;4.18;;;;;;;1.33;83.20;100742.22;5015585;28;20033;-71
2021/01/19 09:05:39;;;;;;;12.68;5.60;;;;;;;1.56;83.36;100776.94;4998121;28;20038;-70
2021/01/19 09:08:18;;;;;;;11.25;5.10;;;;;;;1.53;82.59;100769.09;5015267;28;20044;-71
2021/01/19 09:10:45;;;;;;;7.32;3.67;;;;;;;1.63;82.44;100773.31;5015161;28;20034;-72
2021/01/19 09:13:11;;;;;;;12.30;4.97;;;;;;;1.47;82.81;100734.16;5015191;28;20044;-70
2021/01/19 09:15:42;;;;;;;11.10;5.32;;;;;;;1.58;82.78;100763.78;5015316;28;20048;-71
2021/01/19 09:18:11;;;;;;;13.73;6.85;;;;;;;1.66;82.75;100768.03;5015656;28;20108;-70
2021/01/19 09:20:37;;;;;;;12.02;6.28;;;;;;;1.70;82.71;100777.59;4998012;28;20415;-71
2021/01/19 09:23:15;;;;;;;11.73;6.00;;;;;;;1.70;82.35;100758.31;5015156;28;20034;-70
2021/01/19 09:25:44;;;;;;;11.45;5.53;;;;;;;1.86;82.17;100769.47;5015154;28;20479;-70
2021/01/19 09:28:12;;;;;;;13.18;6.18;;;;;;;1.91;81.99;100770.25;5015123;28;20030;-71
2021/01/19 09:30:39;;;;;;;12.82;6.75;;;;;;;1.84;82.05;100744.97;5015273;28;20029;-71
2021/01/19 09:33:12;;;;;;;17.00;6.93;;;;;;;1.93;82.35;100765.81;5014818;28;20037;-72
2021/01/19 09:35:40;;;;;;;14.98;6.57;;;;;;;2.08;81.81;100768.22;5015236;28;20053;-71
2021/01/19 09:38:20;;;;;;;11.15;6.65;;;;;;;2.06;82.01;100756.84;5014744;28;20463;-71
2021/01/19 09:40:46;;;;;;;13.85;6.90;;;;;;;1.91;81.55;100715.00;4997795;28;20474;-71
2021/01/19 09:43:15;;;;;;;9.85;5.70;;;;;;;2.15;81.13;100761.94;5014990;28;20034;-71
2021/01/19 09:45:41;;;;;;;14.20;6.93;;;;;;;2.09;81.43;100709.41;5014659;28;20069;-71
2021/01/19 09:48:08;;;;;;;13.15;6.78;;;;;;;2.22;81.09;100729.38;5014631;28;20084;-71
2021/01/19 09:50:33;;;;;;;15.15;7.30;;;;;;;2.07;81.55;100703.31;5014774;28;20030;-70
2021/01/19 09:52:59;;;;;;;16.45;7.55;;;;;;;2.48;81.62;100743.78;5014367;28;20030;-70
2021/01/19 09:55:30;;;;;;;14.88;7.43;;;;;;;2.57;81.22;100739.22;5013418;28;20034;-71
2021/01/19 09:58:04;;;;;;;11.88;6.55;;;;;;;2.54;79.79;100730.50;5014592;28;20128;-71
2021/01/19 10:00:32;;;;;;;16.35;7.97;;;;;;;2.58;80.73;100724.28;5014400;28;20545;-70
2021/01/19 10:03:11;;;;;;;17.90;9.07;;;;;;;2.42;81.08;100712.31;5014384;28;20061;-70
2021/01/19 10:05:37;;;;;;;15.80;8.48;;;;;;;2.52;81.43;100720.00;5014567;28;20037;-71
2021/01/19 10:08:03;;;;;;;17.40;9.38;;;;;;;2.44;81.87;100714.03;5014265;28;20030;-71
2021/01/19 10:10:40;;;;;;;20.17;10.13;;;;;;;2.36;81.98;100704.53;5014255;28;20034;-71
2021/01/19 10:13:06;;;;;;;21.02;10.95;;;;;;;2.51;81.38;100704.22;5014139;28;20080;-70
2021/01/19 10:15:33;;;;;;;22.98;11.38;;;;;;;2.50;81.13;100700.72;5014398;28;20034;-70
2021/01/19 10:17:59;;;;;;;21.65;11.00;;;;;;;2.49;81.52;100708.66;5013893;28;20471;-70
2021/01/19 10:20:33;;;;;;;23.35;12.10;;;;;;;2.62;81.15;100712.78;5014199;28;20038;-71
2021/01/19 10:22:59;;;;;;;21.52;11.52;;;;;;;2.44;80.34;100664.00;5014123;28;20030;-70
2021/01/19 10:25:27;;;;;;;18.75;10.55;;;;;;;2.63;80.37;100689.97;5014068;28;20034;-70
2021/01/19 10:27:56;;;;;;;21.33;10.93;;;;;;;2.71;80.27;100695.94;5013710;28;20022;-71
2021/01/19 10:30:27;;;;;;;22.10;10.60;;;;;;;2.44;80.62;100655.22;5013922;28;20034;-72
2021/01/19 10:32:53;;;;;;;20.23;9.70;;;;;;;2.63;80.34;100688.19;5013872;28;20115;-69
2021/01/19 10:35:34;;;;;;;18.40;9.40;;;;;;;2.66;80.41;100696.03;5011607;28;20081;-70
2021/01/19 10:38:07;;;;;;;19.63;9.77;;;;;;;2.70;80.01;100689.81;5013593;28;20073;-71
2021/01/19 10:40:34;;;;;;;22.35;10.60;;;;;;;2.45;79.98;100630.63;5014002;28;20042;-70
2021/01/19 10:43:17;;;;;;;23.58;10.80;;;;;;;2.87;79.83;100666.56;5013601;28;20395;-70
2021/01/19 10:45:43;;;;;;;24.98;11.88;;;;;;;2.83;78.98;100649.13;5013974;28;20611;-71
2021/01/19 10:48:19;;;;;;;23.27;12.60;;;;;;;2.72;78.52;100614.25;5013551;28;20058;-69
2021/01/19 10:50:46;;;;;;;24.48;13.48;;;;;;;2.93;78.02;100631.34;4996385;28;20030;-71
2021/01/19 10:53:11;;;;;;;27.38;13.57;;;;;;;2.97;77.38;100632.97;4995859;28;20030;-70
2021/01/19 10:55:37;;;;;;;24.67;13.05;;;;;;;2.99;77.82;100652.28;4996061;28;20042;-70
2021/01/19 10:58:04;;;;;;;28.42;14.38;;;;;;;2.70;77.73;100608.16;4995785;28;20034;-72
2021/01/19 11:00:31;;;;;;;29.33;15.30;;;;;;;2.88;77.93;100623.50;4995932;28;20161;-70
2021/01/19 11:02:56;;;;;;;27.70;15.52;;;;;;;3.05;78.09;100638.94;5013455;28;20026;-70
2021/01/19 11:05:24;;;;;;;33.85;16.75;;;;;;;3.15;77.87;100663.31;5013038;28;20479;-70
2021/01/19 11:07:51;;;;;;;30.80;15.95;;;;;;;3.08;77.73;100645.91;5013364;28;20104;-70
2021/01/19 11:10:19;;;;;;;30.55;16.27;;;;;;;2.92;77.51;100636.63;5013643;28;20041;-70
2021/01/19 11:12:45;;;;;;;32.15;16.63;;;;;;;2.88;77.24;100618.25;5013480;28;20038;-70
2021/01/19 11:15:12;;;;;;;30.23;15.88;;;;;;;3.02;77.44;100651.34;4995714;28;20052;-70
2021/01/19 11:17:37;;;;;;;33.65;17.45;;;;;;;2.80;77.67;100612.31;4996069;28;20052;-70
2021/01/19 11:20:08;;;;;;;31.60;16.45;;;;;;;2.78;77.23;100613.22;4995585;28;20463;-71
2021/01/19 11:22:34;;;;;;;33.35;16.67;;;;;;;2.96;78.03;100651.47;5013490;28;20038;-70
2021/01/19 11:25:00;;;;;;;31.42;16.83;;;;;;;2.73;78.01;100610.72;5012896;28;20075;-70
2021/01/19 11:27:27;;;;;;;31.83;16.92;;;;;;;2.77;77.91;100630.78;5013519;28;20180;-71